FIMP/MRU METAR and TAF weather

Enter ICAO airport designator
Station Type Date Time Source
FIMP METAR 2021/09/23 18:00 UTC NOAA

FIMP 231800Z 12011KT 9999 VCSH BKN015 BKN050 22/19 Q1022


Station Type Date Time Source
FIMP Decoded METAR 2021/09/23 18:00 UTC NOAA

Plaisance Mauritius , Mauritius (FIMP) 20-26S 057-40E 57M
Sep 23, 2021 - 02:00 PM EDT / 2021.09.23 1800 UTC
Wind: from the ESE (120 degrees) at 13 MPH (11 KT):0
Visibility: greater than 7 mile(s):0
Sky conditions: mostly cloudy
Weather: showers in the vicinity
Temperature: 71 F (22 C)
Dew Point: 66 F (19 C)
Relative Humidity: 83%
Pressure (altimeter): 30.18 in. Hg (1022 hPa)
ob: FIMP 231800Z 12011KT 9999 VCSH BKN015 BKN050 22/19 Q1022
cycle: 18

Station Type Date Time Source
FIMP TAF 2021/09/23 18:26 UTC NOAA

TAF FIMP 231700Z 2318/2500 13012G25KT 9999 BKN016
TEMPO 2318/2400 7000 -SHRA FEW009 BKN014

Example: see airport list